createdAt,value
2019-04-10T00:01:25.739Z,72.97
2019-04-10T00:03:56.769Z,74.63
2019-04-10T00:06:25.789Z,42.40
2019-04-10T00:08:54.712Z,72.10
2019-04-10T00:11:23.395Z,80.57
2019-04-10T00:13:51.908Z,69.73
2019-04-10T00:16:21.030Z,71.63
2019-04-10T00:18:50.527Z,73.83
2019-04-10T00:21:19.110Z,69.23
2019-04-10T00:23:47.546Z,52.67
2019-04-10T00:26:17.415Z,68.10
2019-04-10T00:28:46.356Z,68.90
2019-04-10T00:31:15.708Z,73.30
2019-04-10T00:33:45.117Z,74.60
2019-04-10T00:36:14.138Z,68.70
2019-04-10T00:38:42.715Z,77.50
2019-04-10T00:41:11.928Z,67.90
2019-04-10T00:43:41.514Z,75.33
2019-04-10T00:46:10.327Z,65.30
2019-04-10T00:48:39.750Z,67.70
2019-04-10T00:51:08.876Z,66.43
2019-04-10T00:53:37.481Z,64.67
2019-04-10T00:56:05.930Z,69.20
2019-04-10T00:58:35.281Z,69.17
2019-04-10T01:01:04.144Z,67.23
2019-04-10T01:03:46.728Z,67.50
2019-04-10T01:06:15.865Z,66.77
2019-04-10T01:08:44.781Z,64.77
2019-04-10T01:11:13.355Z,68.77
2019-04-10T01:13:41.823Z,72.07
2019-04-10T01:16:11.335Z,67.37
2019-04-10T01:18:39.983Z,65.77
2019-04-10T01:21:08.568Z,67.00
2019-04-10T01:23:38.039Z,67.50
2019-04-10T01:26:07.212Z,66.60
2019-04-10T01:28:36.705Z,65.13
2019-04-10T01:31:06.648Z,65.10
2019-04-10T01:33:35.310Z,65.10
2019-04-10T01:36:04.755Z,67.77
2019-04-10T01:38:33.538Z,69.60
2019-04-10T01:41:02.017Z,67.53
2019-04-10T01:43:30.933Z,66.03
2019-04-10T01:46:00.019Z,67.67
2019-04-10T01:48:28.639Z,64.73
2019-04-10T01:50:57.155Z,70.00
2019-04-10T01:53:25.974Z,67.47
2019-04-10T01:55:55.463Z,65.30
2019-04-10T01:58:25.275Z,67.73
2019-04-10T02:01:01.841Z,67.73
2019-04-10T02:03:30.532Z,72.13
2019-04-10T02:05:58.995Z,64.43
2019-04-10T02:08:27.450Z,63.60
2019-04-10T02:10:56.579Z,64.60
2019-04-10T02:13:25.454Z,64.97
2019-04-10T02:15:54.481Z,65.23
2019-04-10T02:18:23.484Z,62.83
2019-04-10T02:20:52.075Z,59.97
2019-04-10T02:23:20.757Z,62.53
2019-04-10T02:25:49.410Z,60.67
2019-04-10T02:28:18.618Z,62.80
2019-04-10T02:30:47.898Z,60.10
2019-04-10T02:33:17.646Z,61.73
2019-04-10T02:35:47.708Z,62.80
2019-04-10T02:38:32.718Z,60.43
2019-04-10T02:40:47.529Z,61.37
2019-04-10T02:43:16.394Z,61.00
2019-04-10T02:45:44.974Z,59.80
2019-04-10T02:48:14.919Z,61.03
2019-04-10T02:50:44.791Z,58.40
2019-04-10T02:53:15.158Z,61.90
2019-04-10T02:55:43.989Z,62.13
2019-04-10T02:58:14.073Z,61.00
2019-04-10T03:00:46.248Z,57.37
2019-04-10T03:03:13.900Z,59.40
2019-04-10T03:05:42.708Z,57.23
2019-04-10T03:08:13.076Z,57.43
2019-04-10T03:10:48.611Z,57.87
2019-04-10T03:13:13.594Z,58.57
2019-04-10T03:15:43.476Z,59.90
2019-04-10T03:18:12.729Z,59.10
2019-04-10T03:20:42.600Z,57.17
2019-04-10T03:23:11.572Z,57.73
2019-04-10T03:25:41.292Z,56.87
2019-04-10T03:28:11.081Z,54.47
2019-04-10T03:30:41.493Z,53.90
2019-04-10T03:33:17.089Z,56.87
2019-04-10T03:35:43.461Z,52.07
2019-04-10T03:38:12.021Z,52.87
2019-04-10T03:40:41.508Z,51.60
2019-04-10T03:43:10.277Z,52.90
2019-04-10T03:45:38.974Z,50.73
2019-04-10T03:48:08.430Z,51.07
2019-04-10T03:50:37.096Z,51.60
2019-04-10T03:53:05.600Z,53.23
2019-04-10T03:55:34.840Z,51.87
2019-04-10T03:58:03.486Z,52.13
2019-04-10T04:00:32.164Z,48.57
2019-04-10T04:03:00.792Z,49.90
2019-04-10T04:05:29.348Z,51.30
2019-04-10T04:07:58.128Z,50.33
2019-04-10T04:10:28.717Z,51.07
2019-04-10T04:12:57.322Z,52.97
2019-04-10T04:15:26.135Z,48.40
2019-04-10T04:17:56.865Z,50.00
2019-04-10T04:20:24.964Z,49.63
2019-04-10T04:22:53.532Z,51.27
2019-04-10T04:25:21.996Z,23.27
2019-04-10T04:27:50.539Z,49.13
2019-04-10T04:30:19.139Z,49.63
2019-04-10T04:32:48.378Z,51.03
2019-04-10T04:35:17.572Z,51.07
2019-04-10T04:37:46.331Z,50.23
2019-04-10T04:40:15.373Z,49.20
2019-04-10T04:42:43.923Z,50.40
2019-04-10T04:45:12.814Z,51.50
2019-04-10T04:47:41.480Z,50.30
2019-04-10T04:50:10.124Z,49.13
2019-04-10T04:52:39.125Z,49.23
2019-04-10T04:55:08.017Z,45.30
2019-04-10T04:57:38.105Z,46.73
2019-04-10T05:00:07.766Z,48.93
2019-04-10T05:02:37.179Z,47.23
2019-04-10T05:05:07.007Z,44.77
2019-04-10T05:07:35.554Z,43.20
2019-04-10T05:10:09.055Z,45.10
2019-04-10T05:12:38.127Z,43.47
2019-04-10T05:15:07.092Z,42.63
2019-04-10T05:17:35.609Z,44.37
2019-04-10T05:20:05.583Z,42.03
2019-04-10T05:22:34.186Z,45.33
2019-04-10T05:25:03.167Z,57.27
2019-04-10T05:27:31.692Z,64.17
2019-04-10T05:30:00.261Z,46.50
2019-04-10T05:32:28.771Z,53.17
2019-04-10T05:34:57.250Z,52.07
2019-04-10T05:37:25.695Z,47.97
2019-04-10T05:39:55.304Z,42.37
2019-04-10T05:42:24.790Z,46.13
2019-04-10T05:44:53.908Z,41.73
2019-04-10T05:47:22.472Z,40.27
2019-04-10T05:49:50.931Z,38.27
2019-04-10T05:52:20.336Z,40.80
2019-04-10T05:54:49.377Z,38.67
2019-04-10T05:57:18.071Z,39.50
2019-04-10T05:59:46.582Z,39.57
2019-04-10T06:02:15.825Z,38.23
2019-04-10T06:04:45.417Z,38.47
2019-04-10T06:07:14.064Z,39.67
2019-04-10T06:09:53.008Z,38.30
2019-04-10T06:12:13.833Z,37.10
2019-04-10T06:14:42.446Z,38.07
2019-04-10T06:17:11.119Z,38.27
2019-04-10T06:19:40.556Z,37.13
2019-04-10T06:22:10.058Z,37.33
2019-04-10T06:24:40.428Z,38.03
2019-04-10T06:27:10.266Z,34.10
2019-04-10T06:29:39.312Z,36.23
2019-04-10T06:32:09.405Z,36.73
2019-04-10T06:34:39.220Z,35.87
2019-04-10T06:37:08.106Z,35.63
2019-04-10T06:39:37.207Z,35.90
2019-04-10T06:42:06.608Z,35.60
2019-04-10T06:44:36.307Z,35.07
2019-04-10T06:47:06.318Z,33.77
2019-04-10T06:49:34.963Z,37.37
2019-04-10T06:52:03.452Z,37.67
2019-04-10T06:54:33.036Z,34.73
2019-04-10T06:57:02.867Z,37.43
2019-04-10T06:59:32.427Z,36.17
2019-04-10T07:02:12.901Z,33.50
2019-04-10T07:04:43.020Z,36.50
2019-04-10T07:07:07.767Z,34.23
2019-04-10T07:09:31.971Z,35.20
2019-04-10T07:12:01.773Z,38.13
2019-04-10T07:14:32.139Z,36.23
2019-04-10T07:17:05.112Z,35.90
2019-04-10T07:19:32.336Z,36.37
2019-04-10T07:22:01.934Z,34.93
2019-04-10T07:24:34.455Z,35.97
2019-04-10T07:27:03.394Z,35.40
2019-04-10T07:29:31.455Z,34.83
2019-04-10T07:32:00.459Z,36.87
2019-04-10T07:34:29.934Z,38.03
2019-04-10T07:36:58.619Z,36.80
2019-04-10T07:39:30.380Z,36.90
2019-04-10T07:41:57.824Z,35.43
2019-04-10T07:44:26.376Z,35.90
2019-04-10T07:47:15.296Z,36.97
2019-04-10T07:49:44.063Z,38.20
2019-04-10T07:52:12.635Z,37.47
2019-04-10T07:54:43.067Z,38.50
2019-04-10T07:57:11.826Z,39.60
2019-04-10T07:59:41.085Z,36.73
2019-04-10T08:02:10.154Z,38.20
2019-04-10T08:04:39.511Z,41.07
2019-04-10T08:07:08.138Z,38.90
2019-04-10T08:09:37.560Z,38.67
2019-04-10T08:12:07.167Z,37.63
2019-04-10T08:14:35.836Z,37.10
2019-04-10T08:17:04.383Z,38.47
2019-04-10T08:19:32.913Z,36.80
2019-04-10T08:22:01.473Z,39.77
2019-04-10T08:24:30.790Z,37.93
2019-04-10T08:27:01.203Z,39.33
2019-04-10T08:29:30.233Z,38.13
2019-04-10T08:31:59.188Z,37.67
2019-04-10T08:34:28.154Z,38.30
2019-04-10T08:36:56.876Z,40.17
2019-04-10T08:39:33.948Z,38.67
2019-04-10T08:41:55.774Z,40.00
2019-04-10T08:44:24.366Z,38.23
2019-04-10T08:46:52.933Z,39.30
2019-04-10T08:49:21.452Z,39.47
2019-04-10T08:51:50.522Z,39.93
2019-04-10T08:54:18.996Z,40.03
2019-04-10T08:56:47.431Z,38.07
2019-04-10T08:59:15.949Z,37.93
2019-04-10T09:01:45.208Z,38.90
2019-04-10T09:04:14.617Z,36.07
2019-04-10T09:06:43.941Z,34.97
2019-04-10T09:09:13.162Z,36.90
2019-04-10T09:11:41.760Z,33.47
2019-04-10T09:14:10.702Z,35.73
2019-04-10T09:16:39.241Z,34.73
2019-04-10T09:19:08.085Z,35.17
2019-04-10T09:21:36.782Z,34.37
2019-04-10T09:24:05.367Z,52.13
2019-04-10T09:26:33.874Z,32.37
2019-04-10T09:29:02.568Z,33.47
2019-04-10T09:31:31.528Z,32.40
2019-04-10T09:34:01.155Z,32.73
2019-04-10T09:36:29.716Z,32.20
2019-04-10T09:38:59.110Z,30.90
2019-04-10T09:41:28.012Z,32.40
2019-04-10T09:43:56.642Z,32.20
2019-04-10T09:46:25.158Z,32.37
2019-04-10T09:48:53.620Z,31.77
2019-04-10T09:51:22.063Z,30.90
2019-04-10T09:53:51.079Z,31.97
2019-04-10T09:56:19.744Z,31.43
2019-04-10T09:58:49.093Z,29.70
2019-04-10T10:01:18.076Z,30.27
2019-04-10T10:03:46.719Z,30.37
2019-04-10T10:06:25.226Z,29.93
2019-04-10T10:08:45.362Z,31.73
2019-04-10T10:11:14.088Z,30.97
2019-04-10T10:13:42.589Z,31.43
2019-04-10T10:16:11.586Z,31.67
2019-04-10T10:18:40.027Z,31.40
2019-04-10T10:21:08.661Z,31.37
2019-04-10T10:23:38.021Z,29.97
2019-04-10T10:26:06.640Z,31.80
2019-04-10T10:28:35.376Z,28.83
2019-04-10T10:31:04.083Z,31.17
2019-04-10T10:33:32.748Z,29.83
2019-04-10T10:36:01.263Z,30.63
2019-04-10T10:38:29.724Z,29.97
2019-04-10T10:40:59.112Z,29.63
2019-04-10T10:43:28.811Z,28.57
2019-04-10T10:45:57.423Z,27.27
2019-04-10T10:48:25.876Z,27.47
2019-04-10T10:50:54.359Z,26.43
2019-04-10T10:53:23.976Z,27.27
2019-04-10T10:55:53.856Z,27.83
2019-04-10T10:58:23.767Z,24.23
2019-04-10T11:00:53.584Z,26.30
2019-04-10T11:03:22.481Z,24.23
2019-04-10T11:05:51.117Z,23.53
2019-04-10T11:08:22.084Z,25.57
2019-04-10T11:10:55.713Z,27.27
2019-04-10T11:13:20.853Z,26.07
2019-04-10T11:15:49.969Z,29.07
2019-04-10T11:18:18.635Z,26.63
2019-04-10T11:20:48.376Z,27.87
2019-04-10T11:23:18.132Z,28.37
2019-04-10T11:25:46.794Z,28.27
2019-04-10T11:28:16.308Z,25.47
2019-04-10T11:30:45.067Z,28.83
2019-04-10T11:33:14.947Z,26.63
2019-04-10T11:35:43.936Z,28.40
2019-04-10T11:38:13.377Z,29.03
2019-04-10T11:40:42.148Z,25.50
2019-04-10T11:43:12.573Z,25.90
2019-04-10T11:45:45.449Z,25.97
2019-04-10T11:48:12.933Z,26.33
2019-04-10T11:50:43.827Z,26.60
2019-04-10T11:53:13.660Z,26.97
2019-04-10T11:55:46.656Z,26.30
2019-04-10T11:58:14.613Z,27.60
2019-04-10T12:00:50.476Z,25.10
2019-04-10T12:03:15.250Z,25.73
2019-04-10T12:05:46.267Z,25.53
2019-04-10T12:13:17.013Z,25.10
2019-04-10T12:15:45.049Z,26.20
2019-04-10T12:18:14.112Z,26.63
2019-04-10T12:20:43.134Z,27.80
2019-04-10T12:23:12.598Z,26.07
2019-04-10T12:25:41.353Z,26.13
2019-04-10T12:28:09.864Z,26.90
2019-04-10T12:30:41.862Z,25.63
2019-04-10T12:33:11.468Z,27.50
2019-04-10T12:35:40.441Z,24.53
2019-04-10T12:38:10.810Z,23.97
2019-04-10T12:40:40.435Z,25.20
2019-04-10T12:43:09.183Z,25.47
2019-04-10T12:45:38.177Z,24.47
2019-04-10T12:48:06.843Z,24.23
2019-04-10T12:50:35.284Z,24.63
2019-04-10T12:53:03.895Z,24.53
2019-04-10T12:55:32.532Z,23.83
2019-04-10T12:58:10.675Z,24.70
2019-04-10T13:00:31.823Z,25.83
2019-04-10T13:03:00.799Z,24.87
2019-04-10T13:05:29.584Z,24.70
2019-04-10T13:08:05.293Z,23.00
2019-04-10T13:10:29.420Z,24.63
2019-04-10T13:12:58.206Z,25.33
2019-04-10T13:15:27.607Z,25.10
2019-04-10T13:17:57.126Z,23.67
2019-04-10T13:20:26.451Z,26.20
2019-04-10T13:22:56.178Z,26.43
2019-04-10T13:25:25.963Z,24.93
2019-04-10T13:27:54.923Z,25.23
2019-04-10T13:30:23.638Z,26.07
2019-04-10T13:32:52.101Z,26.77
2019-04-10T13:35:20.628Z,25.13
2019-04-10T13:37:49.060Z,24.00
2019-04-10T13:40:17.931Z,24.67
2019-04-10T13:42:47.431Z,24.80
2019-04-10T13:45:17.599Z,26.57
2019-04-10T13:47:47.068Z,24.40
2019-04-10T13:50:16.931Z,24.97
2019-04-10T13:52:50.449Z,26.23
2019-04-10T13:55:17.331Z,25.20
2019-04-10T13:57:46.627Z,23.93
2019-04-10T14:00:33.935Z,25.10
2019-04-10T14:03:02.380Z,24.70
2019-04-10T14:05:32.525Z,25.13
2019-04-10T14:08:02.138Z,24.03
2019-04-10T14:10:31.308Z,25.87
2019-04-10T14:12:59.863Z,23.97
2019-04-10T14:15:30.284Z,22.43
2019-04-10T14:17:59.715Z,23.90
2019-04-10T14:20:29.024Z,25.03
2019-04-10T14:22:59.356Z,23.97
2019-04-10T14:25:35.850Z,22.87
2019-04-10T14:28:04.958Z,25.43
2019-04-10T14:30:37.822Z,24.63
2019-04-10T14:33:07.207Z,22.90
2019-04-10T14:35:35.901Z,24.07
2019-04-10T14:38:05.051Z,23.17
2019-04-10T14:40:34.008Z,24.70
2019-04-10T14:43:03.240Z,23.43
2019-04-10T14:45:31.793Z,24.37
2019-04-10T14:48:00.305Z,23.63
2019-04-10T14:50:29.464Z,26.83
2019-04-10T14:52:59.153Z,23.10
2019-04-10T14:55:27.813Z,24.90
2019-04-10T14:57:56.279Z,24.33
2019-04-10T15:00:26.533Z,22.03
2019-04-10T15:02:55.934Z,27.10
2019-04-10T15:05:24.524Z,22.53
2019-04-10T15:07:53.284Z,24.00
2019-04-10T15:10:21.943Z,24.30
2019-04-10T15:12:50.407Z,25.63
2019-04-10T15:15:18.854Z,24.63
2019-04-10T15:17:48.628Z,25.97
2019-04-10T15:20:17.328Z,24.37
2019-04-10T15:22:45.964Z,23.83
2019-04-10T15:25:15.072Z,24.40
2019-04-10T15:27:43.815Z,24.57
2019-04-10T15:30:12.589Z,25.20
2019-04-10T15:32:42.144Z,24.20
2019-04-10T15:35:10.747Z,23.23
2019-04-10T15:37:39.576Z,24.40
2019-04-10T15:40:18.305Z,24.47
2019-04-10T15:42:38.891Z,22.23
2019-04-10T15:45:07.627Z,23.87
2019-04-10T15:47:37.132Z,25.10
2019-04-10T15:50:08.460Z,22.33
2019-04-10T15:52:37.545Z,24.13
2019-04-10T15:55:06.378Z,23.10
2019-04-10T15:57:44.838Z,22.50
2019-04-10T16:00:08.536Z,24.50
2019-04-10T16:02:38.421Z,23.87
2019-04-10T16:05:09.036Z,25.53
2019-04-10T16:07:39.437Z,24.77
2019-04-10T16:10:28.886Z,23.10
2019-04-10T16:13:02.228Z,23.40
2019-04-10T16:15:32.511Z,24.83
2019-04-10T16:18:05.468Z,25.07
2019-04-10T16:20:34.462Z,23.17
2019-04-10T16:23:05.785Z,22.17
2019-04-10T16:25:34.447Z,22.80
2019-04-10T16:28:04.021Z,23.30
2019-04-10T16:30:33.053Z,22.20
2019-04-10T16:33:02.790Z,23.50
2019-04-10T16:35:34.947Z,22.73
2019-04-10T16:38:02.329Z,22.73
2019-04-10T16:40:31.963Z,22.60
2019-04-10T16:43:01.444Z,22.33
2019-04-10T16:45:30.694Z,22.50
2019-04-10T16:47:59.271Z,22.17
2019-04-10T16:50:27.916Z,23.77
2019-04-10T16:52:57.708Z,24.33
2019-04-10T16:55:26.882Z,22.80
2019-04-10T16:57:55.725Z,21.43
2019-04-10T17:00:24.255Z,22.77
2019-04-10T17:02:52.986Z,24.23
2019-04-10T17:05:22.631Z,22.73
2019-04-10T17:07:51.637Z,23.37
2019-04-10T17:10:24.512Z,22.17
2019-04-10T17:12:52.185Z,22.13
2019-04-10T17:15:20.884Z,22.57
2019-04-10T17:17:50.602Z,23.00
2019-04-10T17:20:20.275Z,21.53
2019-04-10T17:22:49.711Z,22.10
2019-04-10T17:25:18.344Z,23.10
2019-04-10T17:27:47.859Z,22.60
2019-04-10T17:30:17.716Z,22.50
2019-04-10T17:32:46.616Z,22.37
2019-04-10T17:35:15.901Z,21.63
2019-04-10T17:37:45.612Z,22.43
2019-04-10T17:40:27.402Z,24.60
2019-04-10T17:42:46.671Z,22.33
2019-04-10T17:45:15.346Z,22.93
2019-04-10T17:47:53.617Z,22.17
2019-04-10T17:50:24.494Z,22.10
2019-04-10T17:52:53.404Z,23.23
2019-04-10T17:55:23.101Z,21.13
2019-04-10T17:57:54.502Z,23.93
2019-04-10T18:00:35.517Z,22.67
2019-04-10T18:03:05.447Z,23.57
2019-04-10T18:05:34.979Z,21.97
2019-04-10T18:08:04.978Z,24.63
2019-04-10T18:10:43.163Z,20.90
2019-04-10T18:13:05.133Z,21.00
2019-04-10T18:15:33.880Z,22.33
2019-04-10T18:18:03.228Z,21.03
2019-04-10T18:20:31.870Z,22.63
2019-04-10T18:23:00.923Z,22.20
2019-04-10T18:25:29.801Z,22.90
2019-04-10T18:27:58.347Z,22.03
2019-04-10T18:30:27.979Z,21.73
2019-04-10T18:32:56.663Z,20.57
2019-04-10T18:35:25.107Z,20.43
2019-04-10T18:37:53.641Z,21.47
2019-04-10T18:40:23.248Z,20.70
2019-04-10T18:42:51.819Z,21.63
2019-04-10T18:45:20.253Z,20.27
2019-04-10T18:47:48.715Z,20.00
2019-04-10T18:50:18.264Z,17.93
2019-04-10T18:52:47.706Z,20.13
2019-04-10T18:55:16.276Z,20.27
2019-04-10T18:57:45.232Z,19.57
2019-04-10T19:00:32.411Z,19.37
2019-04-10T19:03:18.895Z,19.43
2019-04-10T19:05:52.100Z,19.67
2019-04-10T19:08:21.765Z,19.13
2019-04-10T19:10:51.633Z,19.43
2019-04-10T19:13:20.339Z,18.77
2019-04-10T19:15:49.003Z,19.17
2019-04-10T19:18:17.462Z,19.73
2019-04-10T19:20:46.934Z,19.37
2019-04-10T19:23:17.163Z,19.37
2019-04-10T19:25:45.773Z,18.90
2019-04-10T19:28:14.830Z,18.97
2019-04-10T19:30:45.669Z,20.43
2019-04-10T19:33:14.337Z,19.50
2019-04-10T19:35:43.451Z,18.97
2019-04-10T19:38:12.107Z,19.13
2019-04-10T19:40:40.552Z,20.00
2019-04-10T19:43:10.237Z,19.40
2019-04-10T19:45:39.782Z,20.50
2019-04-10T19:48:09.002Z,18.83
2019-04-10T19:50:37.626Z,19.97
2019-04-10T19:53:06.177Z,19.53
2019-04-10T19:55:35.839Z,19.50
2019-04-10T19:58:04.530Z,19.50
2019-04-10T20:00:34.777Z,20.07
2019-04-10T20:03:03.644Z,20.10
2019-04-10T20:05:32.258Z,20.70
2019-04-10T20:08:01.674Z,20.40
2019-04-10T20:10:30.157Z,20.43
2019-04-10T20:12:59.398Z,19.27
2019-04-10T20:15:28.839Z,18.80
2019-04-10T20:17:57.416Z,20.23
2019-04-10T20:20:26.971Z,20.10
2019-04-10T20:22:55.651Z,19.40
2019-04-10T20:25:24.412Z,18.43
2019-04-10T20:27:52.850Z,19.97
2019-04-10T20:30:23.733Z,20.20
2019-04-10T20:32:52.454Z,19.30
2019-04-10T20:35:21.004Z,19.13
2019-04-10T20:37:49.446Z,17.77
2019-04-10T20:40:19.206Z,18.80
2019-04-10T20:42:48.716Z,18.80
2019-04-10T20:45:17.690Z,19.67
2019-04-10T20:47:46.943Z,19.33
2019-04-10T20:50:16.087Z,19.97
2019-04-10T20:52:45.301Z,18.97
2019-04-10T20:55:13.888Z,18.50
2019-04-10T20:57:43.709Z,20.90
2019-04-10T21:00:14.669Z,18.23
2019-04-10T21:02:43.199Z,17.50
2019-04-10T21:05:14.782Z,18.73
2019-04-10T21:07:42.100Z,18.27
2019-04-10T21:10:10.794Z,19.00
2019-04-10T21:12:39.877Z,20.57
2019-04-10T21:15:09.072Z,20.80
2019-04-10T21:17:37.731Z,19.30
2019-04-10T21:20:07.950Z,18.80
2019-04-10T21:22:36.471Z,19.27
2019-04-10T21:25:08.251Z,19.37
2019-04-10T21:27:37.643Z,18.63
2019-04-10T21:30:09.439Z,18.40
2019-04-10T21:32:49.983Z,19.43
2019-04-10T21:35:23.266Z,19.60
2019-04-10T21:37:52.791Z,19.93
2019-04-10T21:40:21.414Z,18.73
2019-04-10T21:42:49.858Z,19.50
2019-04-10T21:45:18.336Z,20.07
2019-04-10T21:47:46.779Z,19.17
2019-04-10T21:50:17.137Z,19.03
2019-04-10T21:52:46.140Z,19.70
2019-04-10T21:55:15.024Z,19.23
2019-04-10T21:57:44.680Z,19.50
2019-04-10T22:00:16.399Z,19.23
2019-04-10T22:02:45.166Z,20.43
2019-04-10T22:05:15.009Z,19.80
2019-04-10T22:07:48.255Z,19.50
2019-04-10T22:10:32.116Z,19.90
2019-04-10T22:13:01.598Z,20.33
2019-04-10T22:15:37.716Z,18.87
2019-04-10T22:18:07.182Z,19.53
2019-04-10T22:20:36.100Z,18.73
2019-04-10T22:23:05.477Z,19.50
2019-04-10T22:25:35.209Z,18.67
2019-04-10T22:28:04.254Z,20.93
2019-04-10T22:30:33.107Z,19.57
2019-04-10T22:33:03.365Z,21.07
2019-04-10T22:35:31.958Z,20.10
2019-04-10T22:38:00.448Z,19.77
2019-04-10T22:40:29.162Z,21.03
2019-04-10T22:42:57.846Z,21.97
2019-04-10T22:45:29.253Z,20.07
2019-04-10T22:48:00.515Z,22.47
2019-04-10T22:50:29.417Z,21.40
2019-04-10T22:52:59.111Z,20.33
2019-04-10T22:55:28.117Z,21.20
2019-04-10T22:57:56.953Z,19.67
2019-04-10T23:00:32.722Z,21.17
2019-04-10T23:03:02.926Z,21.87
2019-04-10T23:05:32.304Z,20.20
2019-04-10T23:08:01.257Z,20.93
2019-04-10T23:10:29.941Z,21.20
2019-04-10T23:13:02.897Z,21.67
2019-04-10T23:15:28.964Z,21.90
2019-04-10T23:17:57.443Z,22.30
2019-04-10T23:20:25.969Z,21.57
2019-04-10T23:22:54.869Z,23.00
2019-04-10T23:25:24.574Z,21.80
2019-04-10T23:27:55.195Z,22.73
2019-04-10T23:30:24.655Z,23.13
2019-04-10T23:32:53.547Z,24.37
2019-04-10T23:35:22.296Z,23.47
2019-04-10T23:37:51.146Z,23.53
2019-04-10T23:40:20.914Z,24.33
2019-04-10T23:43:01.275Z,23.40
2019-04-10T23:45:19.905Z,24.90
2019-04-10T23:47:48.651Z,24.40
2019-04-10T23:50:18.567Z,23.73
2019-04-10T23:52:47.917Z,23.93
2019-04-10T23:55:17.697Z,24.33
2019-04-10T23:57:46.407Z,24.23
